Time;durP1;ratioP1;P1;durP2;ratioP2;P2;SDS_P1;SDS_P2;PMS_P1;PMS_P2;Temp;Humidity;BMP_temperature;BMP_pressure;BME280_temperature;BME280_humidity;BME280_pressure;Samples;Min_cycle;Max_cycle;Signal;HPM_P1;HPM_P2
2022/09/21 07:42:49;;;;;;;11.15;2.10;;;18.70;99.90;;;;;;5130641;27;20566;-74
2022/09/21 07:45:20;;;;;;;10.45;2.10;;;18.60;99.90;;;;;;5130065;28;20183;-75
2022/09/21 07:47:53;;;;;;;14.80;2.15;;;18.60;99.90;;;;;;5127139;28;20191;-74
2022/09/21 07:50:24;;;;;;;16.88;2.35;;;18.60;99.90;;;;;;5126410;28;20275;-73
2022/09/21 07:52:54;;;;;;;20.63;2.60;;;18.60;99.90;;;;;;5130098;28;20190;-75
2022/09/21 07:55:25;;;;;;;10.80;2.08;;;18.60;99.90;;;;;;5130314;28;20191;-73
2022/09/21 08:00:44;;;;;;;17.08;2.85;;;18.60;99.90;;;;;;5131573;27;20189;-74
2022/09/21 08:03:15;;;;;;;11.10;3.28;;;18.60;99.90;;;;;;5120910;28;20202;-75
2022/09/21 08:05:45;;;;;;;14.43;3.08;;;18.60;99.90;;;;;;5124700;28;20202;-76
2022/09/21 08:08:16;;;;;;;15.63;2.72;;;18.50;99.90;;;;;;5129967;27;20638;-76
2022/09/21 08:10:47;;;;;;;14.18;2.28;;;18.50;99.90;;;;;;5128929;27;20215;-77
2022/09/21 08:13:19;;;;;;;13.50;2.65;;;18.50;99.90;;;;;;5130253;28;20595;-76
2022/09/21 08:15:59;;;;;;;13.85;2.63;;;18.50;99.90;;;;;;5130625;27;20209;-76
2022/09/21 08:18:30;;;;;;;12.77;2.20;;;18.50;99.90;;;;;;5129494;27;20187;-76
2022/09/21 08:21:02;;;;;;;9.85;1.88;;;18.50;99.90;;;;;;5134280;27;20650;-74
2022/09/21 08:23:32;;;;;;;41.35;20.95;;;18.50;99.90;;;;;;5126858;28;20209;-77
2022/09/21 08:26:04;;;;;;;17.23;3.60;;;18.50;99.90;;;;;;5132142;27;20199;-76
2022/09/21 08:28:37;;;;;;;10.38;2.17;;;18.50;99.90;;;;;;5127300;28;20197;-75
2022/09/21 08:31:09;;;;;;;11.93;2.70;;;18.50;99.90;;;;;;5129803;28;20211;-75
2022/09/21 08:33:40;;;;;;;10.32;2.47;;;18.50;99.90;;;;;;5129106;28;20194;-75
2022/09/21 08:36:11;;;;;;;10.15;2.30;;;18.40;99.90;;;;;;5123228;28;20591;-75
2022/09/21 08:38:42;;;;;;;10.93;2.17;;;18.50;99.90;;;;;;5108822;28;20196;-73
2022/09/21 08:41:20;;;;;;;13.45;2.40;;;18.50;99.90;;;;;;5109407;28;20232;-75
2022/09/21 08:43:56;;;;;;;13.95;2.42;;;18.50;99.90;;;;;;5094918;28;20188;-70
2022/09/21 08:46:29;;;;;;;14.45;3.00;;;18.40;99.90;;;;;;5095302;28;20196;-74
2022/09/21 08:49:05;;;;;;;16.50;2.70;;;18.40;99.90;;;;;;5095321;28;20219;-68
2022/09/21 08:51:43;;;;;;;17.98;2.60;;;18.40;99.90;;;;;;5099953;28;20672;-69
2022/09/21 08:54:18;;;;;;;11.93;2.28;;;18.40;99.90;;;;;;5102059;28;20191;-69
2022/09/21 08:56:49;;;;;;;12.43;2.10;;;18.30;99.90;;;;;;5102626;28;20553;-69
2022/09/21 08:59:22;;;;;;;11.77;2.25;;;18.40;99.90;;;;;;5102616;27;20194;-69
2022/09/21 09:01:59;;;;;;;11.73;2.50;;;18.30;99.90;;;;;;5111582;28;20195;-69
2022/09/21 09:04:51;;;;;;;11.68;1.90;;;18.30;99.90;;;;;;5096867;28;20184;-69
2022/09/21 09:07:46;;;;;;;15.90;2.63;;;18.30;99.90;;;;;;5104888;28;20666;-69
2022/09/21 09:10:31;;;;;;;14.32;2.30;;;18.30;99.90;;;;;;5096478;28;20196;-70
2022/09/21 09:13:18;;;;;;;17.88;2.70;;;18.30;99.90;;;;;;5101900;28;20278;-68
2022/09/21 09:16:04;;;;;;;13.88;4.50;;;18.30;99.90;;;;;;5093987;28;20464;-68
2022/09/21 09:18:41;;;;;;;10.80;2.80;;;18.30;99.90;;;;;;5095344;28;20207;-71
2022/09/21 09:21:17;;;;;;;29.13;10.90;;;18.20;99.90;;;;;;5094575;28;20194;-70
2022/09/21 09:23:51;;;;;;;16.75;3.88;;;18.30;99.90;;;;;;5092322;28;20434;-69
2022/09/21 09:26:26;;;;;;;12.70;2.20;;;18.30;99.90;;;;;;5099247;28;20200;-69
2022/09/21 09:29:00;;;;;;;12.32;2.60;;;18.20;99.90;;;;;;5094327;28;20188;-69
2022/09/21 09:31:36;;;;;;;14.02;2.50;;;18.20;99.90;;;;;;5094677;28;20208;-70
2022/09/21 09:34:14;;;;;;;16.02;2.88;;;18.20;99.90;;;;;;5101983;28;20583;-70
2022/09/21 09:36:48;;;;;;;12.52;2.80;;;18.20;99.90;;;;;;5106171;28;20180;-69
2022/09/21 09:39:19;;;;;;;15.65;3.00;;;18.20;99.90;;;;;;5097352;28;20200;-75
2022/09/21 09:42:21;;;;;;;15.07;2.53;;;18.20;99.90;;;;;;5094669;28;20223;-74
2022/09/21 09:45:09;;;;;;;15.68;2.53;;;18.20;99.90;;;;;;5091530;28;20192;-74
2022/09/21 09:47:52;;;;;;;16.25;2.92;;;18.20;99.90;;;;;;5094644;28;20196;-73
2022/09/21 09:50:28;;;;;;;12.43;2.53;;;18.20;99.90;;;;;;5094271;28;20655;-70
2022/09/21 09:53:05;;;;;;;13.35;2.70;;;18.20;99.90;;;;;;5101624;28;20535;-71
2022/09/21 09:55:41;;;;;;;11.00;2.22;;;18.20;99.90;;;;;;5094136;28;20630;-75
2022/09/21 09:58:19;;;;;;;17.80;2.47;;;18.20;99.90;;;;;;5098221;28;20203;-70
2022/09/21 10:00:54;;;;;;;10.50;2.13;;;18.20;99.90;;;;;;5093547;28;20195;-76
2022/09/21 10:03:29;;;;;;;10.48;2.35;;;18.20;99.90;;;;;;5094217;28;20191;-75
2022/09/21 10:06:00;;;;;;;17.10;2.60;;;18.20;99.90;;;;;;5096753;28;20191;-70
2022/09/21 10:08:40;;;;;;;16.73;2.50;;;18.10;99.90;;;;;;5102491;28;20184;-68
2022/09/21 10:11:12;;;;;;;15.65;3.10;;;18.10;99.90;;;;;;5103060;28;20704;-75
2022/09/21 10:13:45;;;;;;;10.30;2.28;;;18.10;99.90;;;;;;5113804;28;20183;-74
2022/09/21 10:16:17;;;;;;;12.27;2.55;;;18.10;99.90;;;;;;5099801;28;20261;-75
2022/09/21 10:18:55;;;;;;;14.27;2.22;;;18.00;99.90;;;;;;5094425;28;20239;-74
2022/09/21 10:21:27;;;;;;;13.35;2.55;;;18.00;99.90;;;;;;5094132;28;20655;-75
2022/09/21 10:24:03;;;;;;;12.35;2.47;;;18.00;99.90;;;;;;5093639;28;20207;-75
2022/09/21 10:26:37;;;;;;;12.13;2.28;;;18.00;99.90;;;;;;5097487;28;20198;-76
2022/09/21 10:29:29;;;;;;;11.77;2.47;;;18.00;99.90;;;;;;5105041;28;20202;-74
2022/09/21 10:32:01;;;;;;;11.75;2.33;;;18.00;99.90;;;;;;5101366;28;20695;-73
2022/09/21 10:34:35;;;;;;;13.77;2.45;;;18.00;99.90;;;;;;5104782;28;20214;-75
2022/09/21 10:37:27;;;;;;;10.48;2.53;;;18.00;99.90;;;;;;5104819;28;20755;-74
2022/09/21 10:39:58;;;;;;;10.52;2.33;;;18.00;99.90;;;;;;5107955;28;20196;-72
2022/09/21 10:42:31;;;;;;;11.05;2.53;;;18.00;99.90;;;;;;5101098;28;20235;-73
2022/09/21 10:45:14;;;;;;;13.07;2.67;;;18.00;99.90;;;;;;5109727;28;20191;-74
2022/09/21 10:47:47;;;;;;;9.30;2.10;;;18.00;99.90;;;;;;5100241;28;20200;-74
2022/09/21 10:50:29;;;;;;;16.75;2.45;;;17.90;99.90;;;;;;5099185;28;20202;-75
2022/09/21 10:53:03;;;;;;;15.95;2.67;;;18.00;99.90;;;;;;5093597;28;20220;-76
2022/09/21 10:55:38;;;;;;;15.68;2.70;;;17.90;99.90;;;;;;5098564;28;20662;-76
2022/09/21 10:58:12;;;;;;;13.27;2.50;;;17.90;99.90;;;;;;5102991;28;20190;-75
2022/09/21 11:00:47;;;;;;;13.60;2.53;;;17.90;99.90;;;;;;5093564;28;20188;-75
2022/09/21 11:03:40;;;;;;;10.77;2.35;;;17.90;99.90;;;;;;5093338;28;20646;-75
2022/09/21 11:06:19;;;;;;;16.73;2.72;;;17.90;99.90;;;;;;5092934;28;20192;-76
2022/09/21 11:08:55;;;;;;;14.38;2.70;;;17.90;99.90;;;;;;5091705;28;20651;-76
2022/09/21 11:11:50;;;;;;;14.70;2.88;;;17.90;99.90;;;;;;5095129;28;20216;-76
2022/09/21 11:14:45;;;;;;;12.88;2.10;;;17.80;99.90;;;;;;5096527;28;20196;-73
2022/09/21 11:17:21;;;;;;;12.88;2.28;;;17.80;99.90;;;;;;5093430;28;20651;-74
2022/09/21 11:19:55;;;;;;;16.25;2.60;;;17.90;99.90;;;;;;5097506;28;20215;-76
2022/09/21 11:22:36;;;;;;;11.20;2.50;;;17.80;99.90;;;;;;5098727;28;20203;-76
2022/09/21 11:25:21;;;;;;;12.90;2.22;;;17.80;99.90;;;;;;5096983;28;20677;-76
2022/09/21 11:28:00;;;;;;;14.77;2.90;;;17.80;99.90;;;;;;5101094;28;20194;-75
2022/09/21 11:30:35;;;;;;;13.48;2.25;;;17.90;99.90;;;;;;5105244;28;20202;-76
2022/09/21 11:33:17;;;;;;;11.10;2.28;;;17.90;99.90;;;;;;5097791;28;20215;-75
2022/09/21 11:36:02;;;;;;;12.45;1.80;;;17.90;99.90;;;;;;5099682;28;20733;-75
2022/09/21 11:38:50;;;;;;;11.63;2.13;;;17.90;99.90;;;;;;5097748;28;20226;-76
2022/09/21 11:41:42;;;;;;;8.80;2.38;;;17.90;99.90;;;;;;5099491;28;20234;-75
2022/09/21 11:44:26;;;;;;;12.57;2.50;;;17.90;99.90;;;;;;5087570;28;20238;-72
2022/09/21 11:47:08;;;;;;;9.65;2.22;;;17.90;99.90;;;;;;5099194;28;20196;-74
2022/09/21 11:49:50;;;;;;;11.27;2.30;;;17.90;99.90;;;;;;5101795;28;20204;-74
2022/09/21 11:52:33;;;;;;;13.98;2.42;;;17.90;99.90;;;;;;5104665;28;20223;-74
2022/09/21 11:55:28;;;;;;;13.40;2.28;;;17.90;99.90;;;;;;5098116;28;20196;-76
2022/09/21 11:58:06;;;;;;;12.50;2.33;;;17.90;99.90;;;;;;5102660;28;20200;-75
2022/09/21 12:00:43;;;;;;;12.68;2.20;;;17.90;99.90;;;;;;5102289;28;20194;-70
2022/09/21 12:03:50;;;;;;;14.10;2.25;;;17.90;99.90;;;;;;5103372;28;20202;-71
2022/09/21 12:06:36;;;;;;;11.73;2.33;;;17.90;99.90;;;;;;5103873;28;20206;-76
2022/09/21 12:09:27;;;;;;;6.63;1.80;;;17.80;99.90;;;;;;5107112;28;20195;-74
2022/09/21 12:12:10;;;;;;;11.55;2.00;;;17.80;99.90;;;;;;5094637;28;20212;-71
2022/09/21 12:14:49;;;;;;;7.63;2.22;;;17.80;99.90;;;;;;5102809;28;20191;-72
2022/09/21 12:17:25;;;;;;;9.52;2.65;;;17.80;99.90;;;;;;5096956;28;20203;-75
2022/09/21 12:20:04;;;;;;;12.32;2.50;;;17.90;99.90;;;;;;5103217;28;20203;-72
2022/09/21 12:22:39;;;;;;;10.95;2.53;;;17.80;99.90;;;;;;5114352;28;20195;-74
2022/09/21 12:25:17;;;;;;;9.75;2.38;;;17.80;99.90;;;;;;5106002;28;20200;-70
2022/09/21 12:27:53;;;;;;;12.93;2.42;;;17.80;99.90;;;;;;5113322;28;20188;-70
2022/09/21 12:30:25;;;;;;;11.70;2.28;;;17.70;99.90;;;;;;5101995;28;20583;-75
2022/09/21 12:33:01;;;;;;;11.32;2.33;;;17.70;99.90;;;;;;5110238;28;20249;-76
2022/09/21 12:35:37;;;;;;;14.63;3.00;;;17.70;99.90;;;;;;5110273;28;20282;-76
2022/09/21 12:38:12;;;;;;;13.38;2.50;;;17.70;99.90;;;;;;5101396;28;20192;-76
2022/09/21 12:40:50;;;;;;;12.00;2.20;;;17.70;99.90;;;;;;5105207;28;20227;-73
2022/09/21 12:43:34;;;;;;;9.95;2.40;;;17.60;99.90;;;;;;5105838;28;20557;-76
2022/09/21 12:46:10;;;;;;;14.38;2.65;;;17.60;99.90;;;;;;5095120;28;20188;-70
2022/09/21 12:48:42;;;;;;;14.02;2.78;;;17.60;99.90;;;;;;5109017;28;20198;-77
2022/09/21 12:51:18;;;;;;;11.35;2.70;;;17.60;99.90;;;;;;5114950;28;20272;-73
2022/09/21 12:53:51;;;;;;;10.10;2.35;;;17.60;99.90;;;;;;5095711;28;20226;-71
2022/09/21 12:56:31;;;;;;;9.45;2.63;;;17.60;99.90;;;;;;5110544;28;20199;-75
2022/09/21 12:59:27;;;;;;;13.68;3.38;;;17.60;99.90;;;;;;5112978;28;20187;-72
2022/09/21 13:02:11;;;;;;;7.60;2.92;;;17.60;99.90;;;;;;5103005;28;20196;-76
2022/09/21 13:04:57;;;;;;;12.50;2.90;;;17.60;99.90;;;;;;5103717;28;20192;-75
2022/09/21 13:08:07;;;;;;;10.75;3.20;;;17.60;99.90;;;;;;5108896;28;20199;-74
2022/09/21 13:10:47;;;;;;;8.98;2.75;;;17.50;99.90;;;;;;5087096;27;20203;-75
2022/09/21 13:13:28;;;;;;;13.30;3.17;;;17.50;99.90;;;;;;5094512;28;20221;-76
2022/09/21 13:16:03;;;;;;;13.00;2.90;;;17.50;99.90;;;;;;5098629;28;20199;-76
2022/09/21 13:18:35;;;;;;;9.88;3.30;;;17.50;99.90;;;;;;5101689;28;20325;-75
2022/09/21 13:21:20;;;;;;;13.13;3.28;;;17.50;99.90;;;;;;5111276;28;20203;-76
2022/09/21 13:23:59;;;;;;;12.82;3.17;;;17.50;99.90;;;;;;5103133;28;20196;-76
2022/09/21 13:26:36;;;;;;;10.18;3.40;;;17.40;99.90;;;;;;5105176;28;20587;-74
2022/09/21 13:29:27;;;;;;;8.88;3.10;;;17.30;99.90;;;;;;5100585;28;20195;-76
2022/09/21 13:32:04;;;;;;;10.23;2.83;;;17.30;99.90;;;;;;5100379;28;20200;-76
2022/09/21 13:34:41;;;;;;;7.82;3.60;;;17.30;99.90;;;;;;5112944;23;20224;-76
2022/09/21 13:37:36;;;;;;;14.57;3.22;;;17.30;99.90;;;;;;5059717;28;20287;-76
2022/09/21 13:40:37;;;;;;;12.23;3.30;;;17.30;99.90;;;;;;5065126;28;20189;-76
2022/09/21 13:43:26;;;;;;;10.68;4.65;;;17.20;99.90;;;;;;5068274;28;20210;-77
2022/09/21 13:46:01;;;;;;;11.80;3.67;;;17.20;99.90;;;;;;5068396;28;20560;-76
2022/09/21 13:48:36;;;;;;;9.93;4.25;;;17.20;99.90;;;;;;5057018;28;20245;-78
2022/09/21 13:51:13;;;;;;;13.73;4.20;;;17.20;99.90;;;;;;5059673;28;20197;-78
2022/09/21 13:53:47;;;;;;;13.63;4.80;;;17.20;99.90;;;;;;5062997;28;20212;-77
2022/09/21 13:56:24;;;;;;;11.68;5.13;;;17.20;99.90;;;;;;5065308;28;20207;-76
2022/09/21 13:58:59;;;;;;;9.02;4.57;;;17.20;99.90;;;;;;5068923;28;20211;-75
2022/09/21 14:01:36;;;;;;;11.00;4.88;;;17.20;99.90;;;;;;5070975;28;20204;-77
2022/09/21 14:04:26;;;;;;;7.38;4.10;;;17.10;99.90;;;;;;5069765;28;20215;-77
2022/09/21 14:07:00;;;;;;;10.23;4.40;;;17.10;99.90;;;;;;5071004;28;20656;-78
2022/09/21 14:09:35;;;;;;;10.95;4.57;;;17.10;99.90;;;;;;5067412;28;20197;-78
2022/09/21 14:12:11;;;;;;;7.55;4.22;;;17.10;99.90;;;;;;5066671;28;20201;-77
2022/09/21 14:14:42;;;;;;;13.45;4.65;;;17.10;99.90;;;;;;5067678;28;20204;-78
2022/09/21 14:17:39;;;;;;;9.52;4.40;;;17.00;99.90;;;;;;5062658;28;20702;-77
2022/09/21 14:20:30;;;;;;;9.95;3.90;;;17.00;99.90;;;;;;5066389;28;20196;-78
2022/09/21 14:23:31;;;;;;;9.10;3.97;;;17.00;99.90;;;;;;5065002;28;20313;-76
2022/09/21 14:26:04;;;;;;;10.40;3.97;;;16.90;99.90;;;;;;5065733;28;20200;-78
2022/09/21 14:28:46;;;;;;;13.52;4.38;;;16.90;99.90;;;;;;5070576;28;20295;-76
2022/09/21 14:31:23;;;;;;;9.75;4.60;;;16.90;99.90;;;;;;5068910;28;20201;-77
2022/09/21 14:33:58;;;;;;;12.77;3.58;;;16.90;99.90;;;;;;5060617;28;20293;-78
2022/09/21 14:36:40;;;;;;;9.93;3.28;;;16.90;99.90;;;;;;5062162;28;20652;-78
2022/09/21 14:39:20;;;;;;;11.40;3.47;;;16.90;99.90;;;;;;5065126;28;20247;-78
2022/09/21 14:41:55;;;;;;;13.25;3.22;;;16.90;99.90;;;;;;5066375;28;20606;-77
2022/09/21 14:44:32;;;;;;;10.23;3.10;;;16.90;99.90;;;;;;5065522;28;20655;-77
2022/09/21 14:47:27;;;;;;;10.13;2.85;;;16.90;99.90;;;;;;5062331;28;20196;-77
2022/09/21 14:50:21;;;;;;;12.77;2.88;;;16.90;99.90;;;;;;5063851;28;20235;-77
2022/09/21 14:53:16;;;;;;;11.23;2.67;;;17.00;99.90;;;;;;5063405;28;20696;-77
2022/09/21 14:56:05;;;;;;;14.70;2.78;;;17.00;99.90;;;;;;5056900;28;20201;-77
2022/09/21 14:58:54;;;;;;;12.63;2.78;;;17.00;99.90;;;;;;5070510;28;20216;-77
2022/09/21 15:01:40;;;;;;;14.43;2.83;;;17.00;99.90;;;;;;5065392;28;20610;-77
2022/09/21 15:04:42;;;;;;;11.57;2.47;;;17.10;99.90;;;;;;5064382;28;20295;-77
2022/09/21 15:10:58;;;;;;;9.43;2.75;;;17.10;99.90;;;;;;5059072;28;20227;-77
2022/09/21 15:13:51;;;;;;;13.75;2.50;;;17.10;99.90;;;;;;5065782;28;20232;-76
2022/09/21 15:16:47;;;;;;;12.50;2.63;;;17.10;99.90;;;;;;5063492;28;20201;-76
2022/09/21 15:19:27;;;;;;;15.40;2.65;;;17.20;99.90;;;;;;5061924;28;20196;-76
2022/09/21 15:22:12;;;;;;;13.60;2.75;;;17.20;99.90;;;;;;5061665;28;20199;-77
2022/09/21 15:24:53;;;;;;;15.27;2.60;;;17.20;99.90;;;;;;5068608;28;20292;-76
2022/09/21 15:27:32;;;;;;;10.18;2.10;;;17.20;99.90;;;;;;5057680;28;20200;-77
2022/09/21 15:30:05;;;;;;;11.80;2.50;;;17.20;99.90;;;;;;5060234;28;20282;-76
2022/09/21 15:32:41;;;;;;;10.68;2.47;;;17.10;99.90;;;;;;5069711;28;20630;-76
2022/09/21 15:35:21;;;;;;;16.40;2.65;;;17.10;99.90;;;;;;5069198;28;20662;-76
2022/09/21 15:37:54;;;;;;;13.48;2.78;;;17.10;99.90;;;;;;5068962;28;20211;-77
2022/09/21 15:40:27;;;;;;;13.32;2.72;;;17.10;99.90;;;;;;5051803;28;20211;-76
2022/09/21 15:43:07;;;;;;;10.73;2.38;;;17.10;99.90;;;;;;5052710;28;20197;-78
2022/09/21 15:45:53;;;;;;;11.70;2.20;;;17.10;99.90;;;;;;5061138;28;20715;-76
2022/09/21 15:48:24;;;;;;;14.65;2.47;;;17.10;99.90;;;;;;5059830;28;20207;-76
2022/09/21 15:51:00;;;;;;;4.53;2.10;;;17.10;99.90;;;;;;5069274;28;20193;-76
2022/09/21 15:53:37;;;;;;;12.50;2.40;;;17.20;99.90;;;;;;5062841;28;20699;-76
2022/09/21 15:56:10;;;;;;;8.25;2.22;;;17.20;99.90;;;;;;5075713;28;20196;-77
2022/09/21 15:58:48;;;;;;;12.65;2.30;;;17.20;99.90;;;;;;5064335;28;20229;-76
2022/09/21 16:01:22;;;;;;;15.77;2.75;;;17.20;99.90;;;;;;5062623;28;20267;-76
2022/09/21 16:04:07;;;;;;;7.60;2.22;;;17.30;99.90;;;;;;5069644;28;20197;-76
2022/09/21 16:06:43;;;;;;;7.35;2.13;;;17.30;99.90;;;;;;5070332;28;20211;-75
2022/09/21 16:09:43;;;;;;;9.38;2.28;;;17.30;99.90;;;;;;5054475;28;20204;-75
2022/09/21 16:12:43;;;;;;;9.10;2.60;;;17.30;99.90;;;;;;5043620;28;20235;-77
2022/09/21 16:15:24;;;;;;;11.63;2.50;;;17.20;99.90;;;;;;5067659;28;20289;-77
2022/09/21 16:18:04;;;;;;;8.10;1.95;;;17.10;99.90;;;;;;5070880;28;20280;-75
2022/09/21 16:20:46;;;;;;;11.18;2.30;;;17.00;99.90;;;;;;5067955;28;20204;-77
2022/09/21 16:23:22;;;;;;;10.23;2.15;;;17.00;99.90;;;;;;5066054;28;20282;-76
2022/09/21 16:26:00;;;;;;;14.02;2.35;;;17.00;99.90;;;;;;5061347;28;20242;-76
2022/09/21 16:28:41;;;;;;;11.38;2.78;;;16.90;99.90;;;;;;5065765;28;20201;-76
2022/09/21 16:31:42;;;;;;;13.05;2.60;;;16.90;99.90;;;;;;5068949;28;20204;-76
2022/09/21 16:34:38;;;;;;;10.93;2.25;;;16.90;99.90;;;;;;5052264;28;20758;-76
2022/09/21 16:37:27;;;;;;;11.32;2.47;;;16.90;99.90;;;;;;5071030;28;20199;-76
2022/09/21 16:40:00;;;;;;;15.35;2.60;;;16.80;99.90;;;;;;5069641;28;20198;-76
2022/09/21 16:42:33;;;;;;;11.93;2.53;;;16.80;99.90;;;;;;5071217;28;20197;-77
2022/09/21 16:45:10;;;;;;;10.75;2.65;;;16.80;99.90;;;;;;5069772;28;20217;-76
2022/09/21 16:47:45;;;;;;;11.13;2.42;;;16.80;99.90;;;;;;5053514;28;20250;-75
2022/09/21 16:50:19;;;;;;;13.18;2.65;;;16.70;99.90;;;;;;5066207;28;20573;-76
2022/09/21 16:52:51;;;;;;;9.52;2.13;;;16.70;99.90;;;;;;5062033;28;20260;-76
2022/09/21 16:55:23;;;;;;;12.35;2.58;;;16.70;99.90;;;;;;5064065;28;20232;-77
2022/09/21 16:57:55;;;;;;;17.63;2.90;;;16.60;99.90;;;;;;5069609;28;20197;-76
2022/09/21 17:00:28;;;;;;;11.77;2.50;;;16.60;99.90;;;;;;5064996;28;20261;-77
2022/09/21 17:03:03;;;;;;;12.77;2.60;;;16.60;99.90;;;;;;5072146;28;20201;-77
2022/09/21 17:05:34;;;;;;;8.30;2.15;;;16.60;99.90;;;;;;5061796;28;20266;-78
2022/09/21 17:08:06;;;;;;;9.77;2.63;;;16.60;99.90;;;;;;5068595;28;20201;-78
2022/09/21 17:10:44;;;;;;;6.55;2.10;;;16.70;99.90;;;;;;5065421;28;20205;-77
2022/09/21 17:13:18;;;;;;;11.65;2.83;;;16.60;99.90;;;;;;5066343;28;20315;-78
2022/09/21 17:15:52;;;;;;;10.73;2.20;;;16.60;99.90;;;;;;5070852;28;20197;-77
2022/09/21 17:18:27;;;;;;;10.80;2.58;;;16.60;99.90;;;;;;5065331;28;20196;-78
2022/09/21 17:20:59;;;;;;;13.32;2.42;;;16.70;99.90;;;;;;5072156;28;20250;-77
2022/09/21 17:23:32;;;;;;;8.32;2.30;;;16.60;99.90;;;;;;5067889;28;20295;-78
2022/09/21 17:26:04;;;;;;;8.75;2.60;;;16.70;99.90;;;;;;5067901;28;20275;-78
2022/09/21 17:28:36;;;;;;;9.18;2.30;;;16.70;99.90;;;;;;5066618;28;20204;-77
2022/09/21 17:31:08;;;;;;;10.88;2.38;;;16.70;99.90;;;;;;5071688;28;20193;-77
2022/09/21 17:33:43;;;;;;;10.65;2.80;;;16.80;99.90;;;;;;5071802;28;20728;-78
2022/09/21 17:36:17;;;;;;;12.52;2.25;;;16.80;99.90;;;;;;5070327;28;20231;-77
2022/09/21 17:38:49;;;;;;;11.07;2.30;;;16.80;99.90;;;;;;5067842;28;20553;-78
2022/09/21 17:41:27;;;;;;;9.63;2.88;;;16.80;99.90;;;;;;5066330;28;20288;-78
2022/09/21 17:44:08;;;;;;;11.77;3.63;;;16.90;99.90;;;;;;5072017;28;20193;-76
2022/09/21 17:46:47;;;;;;;15.85;2.88;;;16.90;99.90;;;;;;5070191;28;20223;-77
2022/09/21 17:49:23;;;;;;;13.00;2.40;;;16.90;99.90;;;;;;5069549;28;20201;-78
2022/09/21 17:54:42;;;;;;;19.77;2.55;;;16.90;99.90;;;;;;5065746;28;20737;-77
2022/09/21 17:57:30;;;;;;;14.55;2.17;;;17.00;99.90;;;;;;5060293;28;20207;-76
2022/09/21 18:00:11;;;;;;;10.23;2.08;;;17.00;99.90;;;;;;5068125;28;20189;-78
2022/09/21 18:02:43;;;;;;;10.95;2.08;;;17.00;99.90;;;;;;5062355;28;20200;-77
2022/09/21 18:05:26;;;;;;;12.75;2.47;;;17.00;99.90;;;;;;5070530;28;20208;-78
2022/09/21 18:07:58;;;;;;;13.77;2.20;;;17.00;99.90;;;;;;5070017;28;20280;-77
2022/09/21 18:10:31;;;;;;;16.00;2.13;;;17.00;99.90;;;;;;5062706;28;20198;-78
2022/09/21 18:13:17;;;;;;;13.45;2.17;;;17.00;99.90;;;;;;5071230;28;20199;-78
2022/09/21 18:16:08;;;;;;;10.10;2.03;;;17.00;99.90;;;;;;5067033;28;20208;-77
2022/09/21 18:18:46;;;;;;;14.85;2.25;;;17.00;99.90;;;;;;5070637;28;20205;-76
2022/09/21 18:21:23;;;;;;;11.13;2.10;;;17.00;99.90;;;;;;5074204;28;20197;-75
2022/09/21 18:24:16;;;;;;;18.92;2.83;;;16.90;99.90;;;;;;5066835;28;20671;-74
2022/09/21 18:26:47;;;;;;;20.02;2.30;;;16.90;99.90;;;;;;5063940;28;20197;-75
2022/09/21 18:29:31;;;;;;;16.50;2.53;;;16.80;99.90;;;;;;5068697;28;20200;-77
2022/09/21 18:32:15;;;;;;;10.38;1.90;;;16.80;99.90;;;;;;5066445;28;20193;-75
2022/09/21 18:35:04;;;;;;;10.48;1.95;;;16.70;99.90;;;;;;5064193;28;20317;-77
2022/09/21 18:37:52;;;;;;;7.28;1.73;;;16.60;99.90;;;;;;5067687;28;20250;-77
2022/09/21 18:40:31;;;;;;;11.32;2.00;;;16.60;99.90;;;;;;5069436;28;20207;-75
2022/09/21 18:43:16;;;;;;;14.07;2.30;;;16.50;99.90;;;;;;5068123;28;20195;-78
2022/09/21 18:45:49;;;;;;;11.00;2.00;;;16.50;99.90;;;;;;5063669;28;20206;-76
2022/09/21 18:48:29;;;;;;;15.43;2.30;;;16.50;99.90;;;;;;5073081;28;20197;-76
2022/09/21 18:51:09;;;;;;;9.63;1.70;;;16.40;99.90;;;;;;5064381;28;20199;-75
2022/09/21 18:53:47;;;;;;;9.55;1.98;;;16.40;99.90;;;;;;5069437;28;20243;-75
2022/09/21 18:56:19;;;;;;;12.73;2.53;;;16.40;99.90;;;;;;5067580;28;20525;-75
2022/09/21 18:58:50;;;;;;;10.18;2.22;;;16.40;99.90;;;;;;5068385;28;20201;-77
2022/09/21 19:01:22;;;;;;;17.67;2.65;;;16.30;99.90;;;;;;5065337;28;20656;-76
2022/09/21 19:03:53;;;;;;;11.82;2.17;;;16.40;99.90;;;;;;5067056;28;20665;-76
2022/09/21 19:06:40;;;;;;;11.55;1.95;;;16.30;99.90;;;;;;5072512;28;20200;-77
2022/09/21 19:09:28;;;;;;;9.43;1.95;;;16.30;99.90;;;;;;5069412;28;20200;-76
2022/09/21 19:12:08;;;;;;;10.90;2.00;;;16.20;99.90;;;;;;5064790;28;20189;-76
2022/09/21 19:14:46;;;;;;;10.88;1.88;;;16.20;99.90;;;;;;5062235;28;20213;-75
2022/09/21 19:17:31;;;;;;;14.45;2.25;;;16.10;99.90;;;;;;5067912;28;20564;-75
2022/09/21 19:20:14;;;;;;;16.67;2.35;;;16.00;99.90;;;;;;5056278;28;20217;-76
2022/09/21 19:22:56;;;;;;;7.30;1.95;;;16.00;99.90;;;;;;5070779;28;20705;-76
2022/09/21 19:25:37;;;;;;;11.05;1.90;;;15.90;99.90;;;;;;5069306;28;20216;-76
2022/09/21 19:28:24;;;;;;;9.27;2.20;;;15.90;99.90;;;;;;5064528;28;20231;-76
2022/09/21 19:31:01;;;;;;;11.13;2.00;;;15.90;99.90;;;;;;5066732;28;20291;-76
2022/09/21 19:33:36;;;;;;;15.45;2.45;;;15.90;99.90;;;;;;5070138;28;20209;-76
2022/09/21 19:36:07;;;;;;;12.40;2.30;;;15.90;99.90;;;;;;5077674;23;20691;-74
2022/09/21 19:38:38;;;;;;;15.57;2.00;;;15.90;99.90;;;;;;5021459;28;20190;-71
2022/09/21 19:41:29;;;;;;;10.05;2.38;;;15.90;99.90;;;;;;5035929;28;20198;-72
2022/09/21 19:44:09;;;;;;;15.00;2.42;;;15.90;99.90;;;;;;5032512;28;20226;-71
2022/09/21 19:46:44;;;;;;;16.02;2.28;;;16.00;99.90;;;;;;5032301;28;20194;-69
2022/09/21 19:49:17;;;;;;;14.48;2.22;;;16.10;99.90;;;;;;5041524;28;20194;-70
2022/09/21 19:51:51;;;;;;;17.25;2.40;;;16.10;99.90;;;;;;5030762;28;20244;-71
2022/09/21 20:00:04;;;;;;;13.77;2.35;;;16.20;99.90;;;;;;5031246;28;20217;-71
2022/09/21 20:02:38;;;;;;;17.17;2.22;;;16.20;99.90;;;;;;5035338;28;20244;-72
2022/09/21 20:05:14;;;;;;;16.13;2.65;;;16.20;99.90;;;;;;5036347;28;20236;-73
2022/09/21 20:07:51;;;;;;;15.82;2.40;;;16.20;99.90;;;;;;5032699;28;20190;-71
2022/09/21 20:10:40;;;;;;;18.35;2.35;;;16.30;99.90;;;;;;5028990;28;20792;-72
2022/09/21 20:13:25;;;;;;;20.45;2.97;;;16.30;99.90;;;;;;5013181;28;20199;-70
2022/09/21 20:16:02;;;;;;;19.50;3.20;;;16.30;99.90;;;;;;5029078;28;20573;-73
2022/09/21 20:18:44;;;;;;;17.17;3.25;;;16.40;99.90;;;;;;5031230;28;20202;-71
2022/09/21 20:21:18;;;;;;;16.98;2.33;;;16.40;99.90;;;;;;5032843;28;20202;-73
2022/09/21 20:23:49;;;;;;;12.07;1.90;;;16.30;99.90;;;;;;5030882;28;20202;-72
2022/09/21 20:26:25;;;;;;;11.52;2.00;;;16.20;99.90;;;;;;5038271;28;20195;-71
2022/09/21 20:28:58;;;;;;;13.65;2.13;;;16.20;99.90;;;;;;5034448;28;20225;-71
2022/09/21 20:31:29;;;;;;;9.30;1.50;;;16.20;99.90;;;;;;5029705;28;20195;-73
2022/09/21 20:34:00;;;;;;;9.00;1.77;;;16.10;99.90;;;;;;5030355;28;20195;-73
2022/09/21 20:36:31;;;;;;;10.95;1.77;;;16.10;99.90;;;;;;5028415;28;20240;-74
2022/09/21 20:39:03;;;;;;;10.07;1.70;;;16.10;99.90;;;;;;5035651;28;20198;-74
2022/09/21 20:41:33;;;;;;;13.35;1.83;;;16.10;99.90;;;;;;5034886;28;20285;-73
2022/09/21 20:44:06;;;;;;;11.38;1.70;;;16.10;99.90;;;;;;5035504;28;20200;-73
2022/09/21 20:46:37;;;;;;;12.20;1.70;;;16.20;99.90;;;;;;5034251;28;20198;-75
2022/09/21 20:49:07;;;;;;;14.13;1.70;;;16.20;99.90;;;;;;5032441;28;20461;-74
2022/09/21 20:51:38;;;;;;;13.88;2.13;;;16.20;99.90;;;;;;5031610;28;21772;-74
2022/09/21 20:54:09;;;;;;;12.23;2.00;;;16.30;99.90;;;;;;5035252;28;20222;-74
2022/09/21 20:56:40;;;;;;;15.43;1.95;;;16.30;99.90;;;;;;5033945;28;20657;-74
2022/09/21 20:59:12;;;;;;;15.05;2.05;;;16.40;99.90;;;;;;5031171;28;20749;-76
2022/09/21 21:01:43;;;;;;;25.58;2.70;;;16.50;99.90;;;;;;5029856;28;20654;-75
2022/09/21 21:04:14;;;;;;;15.50;1.90;;;16.50;99.90;;;;;;5031954;28;20204;-73
2022/09/21 21:06:45;;;;;;;20.23;2.55;;;16.60;99.90;;;;;;5030598;28;20567;-73
2022/09/21 21:09:15;;;;;;;16.73;2.25;;;16.60;99.90;;;;;;5032106;28;20231;-74
2022/09/21 21:11:46;;;;;;;12.25;1.80;;;16.70;99.90;;;;;;5035720;28;20684;-75
2022/09/21 21:14:19;;;;;;;13.43;2.03;;;16.70;99.90;;;;;;5031739;28;20214;-72
2022/09/21 21:16:50;;;;;;;13.73;2.05;;;16.70;99.90;;;;;;5035386;28;20194;-72
2022/09/21 21:19:20;;;;;;;14.95;1.85;;;16.70;99.90;;;;;;5034853;28;20661;-72
2022/09/21 21:21:51;;;;;;;16.70;2.28;;;16.70;99.90;;;;;;5046954;28;20190;-71
2022/09/21 21:27:09;;;;;;;14.70;1.80;;;16.80;99.90;;;;;;5034850;28;20557;-72
2022/09/21 21:29:42;;;;;;;12.70;1.77;;;16.80;99.90;;;;;;5034430;28;20248;-73
2022/09/21 21:32:13;;;;;;;13.88;1.65;;;16.80;99.90;;;;;;5034324;28;20202;-73
2022/09/21 21:34:44;;;;;;;18.30;2.10;;;16.80;99.90;;;;;;5036472;28;20276;-74